createdAt,value
2018-01-26T00:00:37.956Z,17.23
2018-01-26T00:03:09.071Z,17.23
2018-01-26T00:05:40.177Z,17.50
2018-01-26T00:08:11.298Z,18.17
2018-01-26T00:10:42.336Z,18.47
2018-01-26T00:13:13.579Z,18.17
2018-01-26T00:15:44.627Z,18.40
2018-01-26T00:18:15.726Z,18.23
2018-01-26T00:20:46.791Z,18.67
2018-01-26T00:23:17.915Z,18.93
2018-01-26T00:25:48.985Z,18.33
2018-01-26T00:28:20.080Z,19.00
2018-01-26T00:30:51.149Z,17.40
2018-01-26T00:33:22.272Z,18.90
2018-01-26T00:35:53.329Z,18.10
2018-01-26T00:38:24.474Z,17.70
2018-01-26T00:40:55.562Z,19.00
2018-01-26T00:43:26.707Z,19.17
2018-01-26T00:45:57.838Z,16.87
2018-01-26T00:48:28.921Z,18.13
2018-01-26T00:51:00.074Z,18.33
2018-01-26T00:53:31.131Z,18.37
2018-01-26T00:56:02.260Z,17.20
2018-01-26T00:58:33.507Z,18.10
2018-01-26T01:01:04.583Z,18.73
2018-01-26T01:03:42.689Z,18.13
2018-01-26T01:06:13.764Z,18.23
2018-01-26T01:08:44.923Z,18.40
2018-01-26T01:11:15.981Z,17.83
2018-01-26T01:13:47.092Z,17.70
2018-01-26T01:16:18.155Z,18.37
2018-01-26T01:18:49.251Z,17.90
2018-01-26T01:21:20.366Z,18.37
2018-01-26T01:23:51.472Z,18.27
2018-01-26T01:26:22.523Z,17.10
2018-01-26T01:28:53.723Z,18.67
2018-01-26T01:31:24.816Z,17.87
2018-01-26T01:33:55.951Z,18.33
2018-01-26T01:36:27.777Z,18.03
2018-01-26T01:38:58.878Z,18.03
2018-01-26T01:41:30.941Z,18.27
2018-01-26T01:44:02.086Z,17.73
2018-01-26T01:46:33.137Z,17.53
2018-01-26T01:49:15.396Z,18.80
2018-01-26T01:51:46.533Z,19.07
2018-01-26T01:54:17.664Z,18.40
2018-01-26T01:56:48.756Z,18.50
2018-01-26T01:59:19.907Z,18.63
2018-01-26T02:01:50.991Z,17.83
2018-01-26T02:04:22.115Z,19.23
2018-01-26T02:06:53.167Z,19.47
2018-01-26T02:09:24.355Z,19.77
2018-01-26T02:11:55.434Z,19.23
2018-01-26T02:14:26.571Z,20.50
2018-01-26T02:16:57.590Z,19.23
2018-01-26T02:19:28.716Z,19.27
2018-01-26T02:21:59.823Z,21.70
2018-01-26T02:24:30.868Z,19.70
2018-01-26T02:27:02.012Z,20.83
2018-01-26T02:29:33.056Z,20.97
2018-01-26T02:32:04.164Z,18.97
2018-01-26T02:34:35.408Z,19.60
2018-01-26T02:37:06.472Z,21.40
2018-01-26T02:39:37.516Z,19.73
2018-01-26T02:42:08.611Z,20.60
2018-01-26T02:44:39.713Z,19.37
2018-01-26T02:47:10.804Z,20.23
2018-01-26T02:49:41.924Z,19.83
2018-01-26T02:52:13.111Z,20.67
2018-01-26T02:54:44.258Z,20.90
2018-01-26T02:57:15.328Z,19.20
2018-01-26T02:59:46.440Z,19.57
2018-01-26T03:02:17.529Z,18.33
2018-01-26T03:04:48.626Z,18.73
2018-01-26T03:07:25.777Z,19.90
2018-01-26T03:09:57.101Z,18.63
2018-01-26T03:12:29.022Z,19.83
2018-01-26T03:15:00.096Z,20.20
2018-01-26T03:17:31.188Z,20.37
2018-01-26T03:20:02.278Z,20.10
2018-01-26T03:22:33.522Z,18.63
2018-01-26T03:25:04.614Z,20.27
2018-01-26T03:27:36.471Z,21.37
2018-01-26T03:30:07.572Z,20.13
2018-01-26T03:32:38.697Z,20.13
2018-01-26T03:35:09.749Z,20.77
2018-01-26T03:37:40.843Z,19.03
2018-01-26T03:40:11.962Z,20.20
2018-01-26T03:42:43.708Z,20.37
2018-01-26T03:45:14.841Z,19.87
2018-01-26T03:47:45.930Z,19.97
2018-01-26T03:50:17.128Z,19.47
2018-01-26T03:52:48.175Z,20.17
2018-01-26T03:55:19.349Z,19.67
2018-01-26T03:57:50.429Z,22.80
2018-01-26T04:00:21.549Z,21.20
2018-01-26T04:02:52.602Z,23.27
2018-01-26T04:05:23.741Z,23.73
2018-01-26T04:07:54.875Z,23.37
2018-01-26T04:10:26.058Z,24.13
2018-01-26T04:12:57.157Z,23.93
2018-01-26T04:15:28.294Z,25.47
2018-01-26T04:17:59.441Z,24.70
2018-01-26T04:20:30.504Z,23.67
2018-01-26T04:23:01.650Z,25.00
2018-01-26T04:25:32.700Z,26.43
2018-01-26T04:28:03.780Z,25.17
2018-01-26T04:30:34.874Z,24.87
2018-01-26T04:33:06.090Z,28.40
2018-01-26T04:35:37.173Z,26.93
2018-01-26T04:38:08.312Z,26.87
2018-01-26T04:40:39.349Z,26.23
2018-01-26T04:43:10.485Z,27.13
2018-01-26T04:45:41.578Z,27.23
2018-01-26T04:48:12.678Z,28.07
2018-01-26T04:50:43.877Z,27.07
2018-01-26T04:53:14.968Z,29.90
2018-01-26T04:55:46.127Z,27.93
2018-01-26T04:58:17.239Z,27.30
2018-01-26T05:00:48.297Z,28.83
2018-01-26T05:03:19.382Z,27.20
2018-01-26T05:05:50.458Z,28.57
2018-01-26T05:08:21.931Z,28.00
2018-01-26T05:10:53.184Z,28.63
2018-01-26T05:13:24.239Z,27.97
2018-01-26T05:15:55.265Z,28.60
2018-01-26T05:18:26.334Z,25.30
2018-01-26T05:20:57.444Z,24.77
2018-01-26T05:23:28.525Z,26.20
2018-01-26T05:25:59.857Z,27.50
2018-01-26T05:28:30.936Z,28.20
2018-01-26T05:31:02.023Z,26.23
2018-01-26T05:33:33.146Z,27.70
2018-01-26T05:36:04.257Z,30.13
2018-01-26T05:38:35.358Z,27.60
2018-01-26T05:41:06.405Z,28.23
2018-01-26T05:43:37.466Z,28.70
2018-01-26T05:46:08.569Z,26.60
2018-01-26T05:48:40.258Z,29.03
2018-01-26T05:51:11.340Z,30.33
2018-01-26T05:53:42.421Z,30.40
2018-01-26T05:56:14.431Z,29.97
2018-01-26T05:58:45.498Z,29.77
2018-01-26T06:01:16.637Z,30.10
2018-01-26T06:03:47.688Z,30.23
2018-01-26T06:06:19.413Z,28.50
2018-01-26T06:08:50.501Z,27.60
2018-01-26T06:11:21.568Z,28.73
2018-01-26T06:13:52.628Z,29.40
2018-01-26T06:16:23.747Z,30.03
2018-01-26T06:18:54.839Z,28.93
2018-01-26T06:21:25.944Z,28.30
2018-01-26T06:23:56.996Z,30.73
2018-01-26T06:26:28.095Z,29.03
2018-01-26T06:28:59.152Z,29.37
2018-01-26T06:31:30.277Z,27.33
2018-01-26T06:34:01.333Z,28.43
2018-01-26T06:36:32.468Z,28.87
2018-01-26T06:39:03.676Z,28.90
2018-01-26T06:41:34.760Z,27.57
2018-01-26T06:44:05.847Z,27.73
2018-01-26T06:46:36.934Z,27.13
2018-01-26T06:49:08.057Z,27.63
2018-01-26T06:51:39.244Z,29.80
2018-01-26T06:54:10.340Z,29.97
2018-01-26T06:56:41.467Z,27.63
2018-01-26T06:59:12.550Z,28.07
2018-01-26T07:01:43.725Z,27.50
2018-01-26T07:04:14.766Z,26.57
2018-01-26T07:06:45.911Z,27.57
2018-01-26T07:09:17.030Z,29.77
2018-01-26T07:11:48.138Z,27.70
2018-01-26T07:14:19.249Z,27.17
2018-01-26T07:16:50.354Z,29.37
2018-01-26T07:19:21.594Z,28.83
2018-01-26T07:21:52.824Z,29.67
2018-01-26T07:24:23.980Z,29.97
2018-01-26T07:26:55.100Z,28.73
2018-01-26T07:29:26.214Z,28.80
2018-01-26T07:31:57.242Z,27.53
2018-01-26T07:34:28.397Z,27.97
2018-01-26T07:36:59.546Z,29.37
2018-01-26T07:39:30.700Z,28.70
2018-01-26T07:42:01.772Z,28.83
2018-01-26T07:44:32.860Z,27.60
2018-01-26T07:47:03.934Z,28.40
2018-01-26T07:49:35.137Z,31.30
2018-01-26T07:52:06.183Z,29.37
2018-01-26T07:54:37.349Z,28.10
2018-01-26T07:57:08.412Z,31.53
2018-01-26T07:59:39.581Z,28.93
2018-01-26T08:02:11.025Z,30.70
2018-01-26T08:04:42.163Z,31.50
2018-01-26T08:07:13.272Z,29.60
2018-01-26T08:09:44.440Z,31.03
2018-01-26T08:12:15.533Z,29.97
2018-01-26T08:14:46.629Z,30.57
2018-01-26T08:17:17.733Z,29.97
2018-01-26T08:19:48.834Z,28.77
2018-01-26T08:22:21.474Z,28.20
2018-01-26T08:24:52.587Z,29.83
2018-01-26T08:27:23.689Z,29.80
2018-01-26T08:29:54.804Z,29.67
2018-01-26T08:32:25.949Z,30.10
2018-01-26T08:34:57.076Z,28.27
2018-01-26T08:37:28.232Z,29.20
2018-01-26T08:39:59.359Z,27.50
2018-01-26T08:42:30.433Z,28.03
2018-01-26T08:45:01.506Z,30.40
2018-01-26T08:47:32.587Z,28.63
2018-01-26T08:50:03.764Z,27.93
2018-01-26T08:52:34.838Z,29.13
2018-01-26T08:55:08.981Z,28.40
2018-01-26T08:57:40.088Z,28.73
2018-01-26T09:00:11.320Z,30.90
2018-01-26T09:02:42.420Z,33.97
2018-01-26T09:05:13.517Z,33.00
2018-01-26T09:07:44.618Z,30.87
2018-01-26T09:10:15.790Z,33.00
2018-01-26T09:12:46.868Z,33.13
2018-01-26T09:15:18.211Z,31.80
2018-01-26T09:17:49.276Z,31.53
2018-01-26T09:20:20.345Z,31.57
2018-01-26T09:22:51.470Z,31.23
2018-01-26T09:25:22.662Z,34.03
2018-01-26T09:27:53.789Z,33.33
2018-01-26T09:30:24.922Z,34.30
2018-01-26T09:32:56.032Z,34.83
2018-01-26T09:35:27.181Z,34.77
2018-01-26T09:37:58.302Z,32.97
2018-01-26T09:40:29.463Z,34.73
2018-01-26T09:43:00.594Z,33.40
2018-01-26T09:45:31.737Z,35.07
2018-01-26T09:48:02.890Z,34.97
2018-01-26T09:50:34.090Z,33.97
2018-01-26T09:53:05.159Z,34.20
2018-01-26T09:55:36.341Z,37.47
2018-01-26T09:58:07.444Z,34.90
2018-01-26T10:00:39.147Z,37.03
2018-01-26T10:03:10.194Z,35.13
2018-01-26T10:05:41.344Z,35.83
2018-01-26T10:08:12.440Z,34.80
2018-01-26T10:10:43.533Z,35.17
2018-01-26T10:13:14.651Z,35.77
2018-01-26T10:15:45.777Z,34.43
2018-01-26T10:18:16.881Z,34.83
2018-01-26T10:20:48.008Z,34.93
2018-01-26T10:23:19.098Z,32.30
2018-01-26T10:25:50.176Z,33.47
2018-01-26T10:28:21.267Z,33.80
2018-01-26T10:30:52.402Z,36.63
2018-01-26T10:33:23.656Z,35.97
2018-01-26T10:35:54.766Z,37.43
2018-01-26T10:38:25.791Z,35.33
2018-01-26T10:40:56.933Z,33.43
2018-01-26T10:43:28.082Z,33.50
2018-01-26T10:45:59.225Z,31.83
2018-01-26T10:48:30.278Z,32.30
2018-01-26T10:51:01.381Z,31.63
2018-01-26T10:53:32.466Z,30.27
2018-01-26T10:56:03.621Z,30.23
2018-01-26T10:58:34.710Z,32.13
2018-01-26T11:01:05.741Z,32.37
2018-01-26T11:03:36.850Z,31.87
2018-01-26T11:06:07.995Z,33.40
2018-01-26T11:08:39.049Z,31.63
2018-01-26T11:11:10.209Z,30.40
2018-01-26T11:13:41.255Z,29.83
2018-01-26T11:16:12.393Z,31.90
2018-01-26T11:18:43.476Z,30.87
2018-01-26T11:21:14.637Z,34.53
2018-01-26T11:23:46.207Z,33.20
2018-01-26T11:26:17.394Z,32.67
2018-01-26T11:28:48.430Z,31.70
2018-01-26T11:31:19.606Z,31.27
2018-01-26T11:33:50.795Z,31.50
2018-01-26T11:36:21.849Z,31.33
2018-01-26T11:38:52.992Z,31.03
2018-01-26T11:41:24.146Z,31.93
2018-01-26T11:43:55.244Z,31.23
2018-01-26T11:46:26.267Z,33.30
2018-01-26T11:48:57.461Z,30.87
2018-01-26T11:51:28.486Z,31.30
2018-01-26T11:53:59.592Z,28.57
2018-01-26T11:56:30.644Z,30.07
2018-01-26T11:59:01.735Z,32.27
2018-01-26T12:01:32.796Z,31.67
2018-01-26T12:04:04.192Z,30.50
2018-01-26T12:06:35.312Z,30.07
2018-01-26T12:09:06.442Z,32.37
2018-01-26T12:11:37.524Z,30.33
2018-01-26T12:14:08.625Z,29.67
2018-01-26T12:16:39.696Z,30.33
2018-01-26T12:19:10.836Z,30.27
2018-01-26T12:21:42.110Z,28.93
2018-01-26T12:24:13.246Z,29.60
2018-01-26T12:26:44.286Z,29.80
2018-01-26T12:29:15.478Z,29.30
2018-01-26T12:31:46.557Z,28.83
2018-01-26T12:34:17.670Z,29.23
2018-01-26T12:36:48.795Z,30.00
2018-01-26T12:39:19.913Z,31.80
2018-01-26T12:41:51.091Z,29.20
2018-01-26T12:44:22.171Z,30.63
2018-01-26T12:46:53.289Z,28.93
2018-01-26T12:49:24.372Z,30.10
2018-01-26T12:51:55.516Z,29.80
2018-01-26T12:54:26.589Z,31.67
2018-01-26T12:56:57.644Z,30.73
2018-01-26T12:59:28.782Z,28.80
2018-01-26T13:01:59.854Z,28.90
2018-01-26T13:04:31.556Z,29.80
2018-01-26T13:07:03.381Z,30.47
2018-01-26T13:09:34.452Z,29.70
2018-01-26T13:12:05.966Z,27.30
2018-01-26T13:14:37.067Z,29.10
2018-01-26T13:17:08.164Z,29.77
2018-01-26T13:19:39.307Z,29.73
2018-01-26T13:22:10.484Z,28.40
2018-01-26T13:24:41.596Z,30.60
2018-01-26T13:27:12.667Z,28.33
2018-01-26T13:29:43.844Z,28.73
2018-01-26T13:32:14.885Z,30.43
2018-01-26T13:34:46.087Z,28.37
2018-01-26T13:37:17.134Z,28.33
2018-01-26T13:39:48.303Z,32.97
2018-01-26T13:42:19.459Z,28.63
2018-01-26T13:44:50.534Z,28.70
2018-01-26T13:47:21.642Z,27.37
2018-01-26T13:49:52.690Z,28.43
2018-01-26T13:52:23.821Z,27.30
2018-01-26T13:54:54.889Z,30.13
2018-01-26T13:57:26.061Z,26.80
2018-01-26T13:59:57.152Z,25.73
2018-01-26T14:02:28.305Z,27.00
2018-01-26T14:04:59.452Z,28.07
2018-01-26T14:07:31.149Z,26.63
2018-01-26T14:10:02.423Z,27.43
2018-01-26T14:12:33.454Z,26.53
2018-01-26T14:15:05.294Z,26.07
2018-01-26T14:17:36.404Z,26.47
2018-01-26T14:20:07.564Z,26.57
2018-01-26T14:22:38.617Z,27.73
2018-01-26T14:25:09.750Z,26.07
2018-01-26T14:27:40.841Z,27.43
2018-01-26T14:30:12.112Z,24.50
2018-01-26T14:32:43.201Z,24.23
2018-01-26T14:35:14.296Z,23.27
2018-01-26T14:37:45.365Z,22.80
2018-01-26T14:40:16.525Z,22.40
2018-01-26T14:42:47.626Z,22.87
2018-01-26T14:45:18.792Z,21.77
2018-01-26T14:47:49.884Z,23.60
2018-01-26T14:50:20.997Z,24.33
2018-01-26T14:52:52.132Z,24.67
2018-01-26T14:55:23.288Z,24.00
2018-01-26T14:57:54.385Z,23.83
2018-01-26T15:00:25.508Z,24.47
2018-01-26T15:02:56.593Z,24.37
2018-01-26T15:05:27.754Z,24.20
2018-01-26T15:07:58.851Z,24.13
2018-01-26T15:10:29.899Z,24.77
2018-01-26T15:13:01.219Z,24.67
2018-01-26T15:15:32.287Z,24.07
2018-01-26T15:18:03.457Z,24.83
2018-01-26T15:20:34.577Z,27.17
2018-01-26T15:23:05.845Z,27.87
2018-01-26T15:25:37.056Z,25.20
2018-01-26T15:28:08.272Z,25.67
2018-01-26T15:30:39.395Z,25.43
2018-01-26T15:33:10.450Z,25.10
2018-01-26T15:35:41.611Z,25.47
2018-01-26T15:38:12.728Z,25.93
2018-01-26T15:40:43.869Z,24.63
2018-01-26T15:43:16.203Z,31.40
2018-01-26T15:45:47.351Z,26.63
2018-01-26T15:48:18.468Z,26.07
2018-01-26T15:50:49.562Z,26.37
2018-01-26T15:53:20.655Z,26.83
2018-01-26T15:55:51.819Z,26.17
2018-01-26T15:58:22.908Z,27.10
2018-01-26T16:00:54.791Z,27.53
2018-01-26T16:03:25.843Z,24.37
2018-01-26T16:05:57.006Z,25.97
2018-01-26T16:08:28.131Z,26.53
2018-01-26T16:10:59.274Z,25.70
2018-01-26T16:13:30.378Z,25.97
2018-01-26T16:16:03.537Z,26.80
2018-01-26T16:18:34.612Z,31.73
2018-01-26T16:21:05.744Z,27.20
2018-01-26T16:23:36.917Z,26.23
2018-01-26T16:26:08.257Z,28.40
2018-01-26T16:28:39.367Z,26.13
2018-01-26T16:31:10.501Z,24.83
2018-01-26T16:33:41.568Z,25.00
2018-01-26T16:36:12.745Z,28.20
2018-01-26T16:38:43.808Z,31.97
2018-01-26T16:41:14.958Z,26.87
2018-01-26T16:43:46.033Z,27.00
2018-01-26T16:46:17.191Z,28.17
2018-01-26T16:48:48.287Z,29.00
2018-01-26T16:51:19.560Z,28.53
2018-01-26T16:53:50.631Z,28.60
2018-01-26T16:56:21.757Z,27.33
2018-01-26T16:58:52.847Z,27.17
2018-01-26T17:01:23.952Z,26.83
2018-01-26T17:03:55.024Z,25.77
2018-01-26T17:06:26.126Z,28.53
2018-01-26T17:08:57.195Z,29.47
2018-01-26T17:11:28.322Z,32.00
2018-01-26T17:13:59.368Z,31.43
2018-01-26T17:16:30.432Z,30.03
2018-01-26T17:19:01.530Z,29.80
2018-01-26T17:21:32.627Z,30.47
2018-01-26T17:24:03.729Z,30.30
2018-01-26T17:26:34.825Z,28.20
2018-01-26T17:29:05.948Z,28.80
2018-01-26T17:31:37.024Z,29.80
2018-01-26T17:34:08.097Z,28.37
2018-01-26T17:36:40.372Z,29.67
2018-01-26T17:39:11.524Z,29.40
2018-01-26T17:41:42.587Z,31.63
2018-01-26T17:44:13.907Z,29.53
2018-01-26T17:46:45.094Z,33.47
2018-01-26T17:49:16.208Z,30.30
2018-01-26T17:51:47.286Z,28.97
2018-01-26T17:54:18.362Z,31.50
2018-01-26T17:56:50.422Z,32.13
2018-01-26T17:59:21.569Z,32.83
2018-01-26T18:01:52.649Z,33.53
2018-01-26T18:04:23.792Z,33.93
2018-01-26T18:06:54.873Z,37.23
2018-01-26T18:09:25.978Z,39.73
2018-01-26T18:11:57.074Z,41.33
2018-01-26T18:14:28.205Z,39.87
2018-01-26T18:17:00.064Z,46.30
2018-01-26T18:19:31.241Z,41.07
2018-01-26T18:22:02.362Z,41.43
2018-01-26T18:24:33.455Z,38.53
2018-01-26T18:27:04.582Z,40.87
2018-01-26T18:29:35.688Z,40.67
2018-01-26T18:32:07.628Z,40.90
2018-01-26T18:34:38.742Z,38.97
2018-01-26T18:37:09.850Z,41.57
2018-01-26T18:39:41.068Z,41.07
2018-01-26T18:42:12.183Z,40.67
2018-01-26T18:44:43.291Z,41.80
2018-01-26T18:47:15.151Z,43.17
2018-01-26T18:49:46.259Z,44.20
2018-01-26T18:52:17.328Z,41.70
2018-01-26T18:54:48.450Z,41.63
2018-01-26T18:57:19.553Z,40.90
2018-01-26T18:59:50.657Z,41.33
2018-01-26T19:02:21.754Z,40.97
2018-01-26T19:04:52.857Z,40.03
2018-01-26T19:07:23.913Z,41.37
2018-01-26T19:09:55.000Z,40.90
2018-01-26T19:12:26.069Z,40.93
2018-01-26T19:14:57.334Z,41.53
2018-01-26T19:20:01.206Z,41.67
2018-01-26T19:22:32.285Z,43.23
2018-01-26T19:25:03.408Z,40.43
2018-01-26T19:27:34.521Z,40.20
2018-01-26T19:30:05.643Z,41.23
2018-01-26T19:32:36.742Z,40.53
2018-01-26T19:35:07.840Z,40.47
2018-01-26T19:37:38.936Z,38.67
2018-01-26T19:40:10.039Z,38.63
2018-01-26T19:42:41.103Z,37.93
2018-01-26T19:45:12.162Z,38.87
2018-01-26T19:47:43.230Z,40.13
2018-01-26T19:50:14.289Z,40.60
2018-01-26T19:52:45.967Z,40.23
2018-01-26T19:55:17.068Z,41.93
2018-01-26T19:57:48.159Z,40.57
2018-01-26T20:00:19.297Z,40.13
2018-01-26T20:02:50.417Z,40.87
2018-01-26T20:05:40.238Z,41.40
2018-01-26T20:08:26.610Z,39.37
2018-01-26T20:10:57.694Z,41.00
2018-01-26T20:13:28.813Z,39.67
2018-01-26T20:15:59.891Z,40.30
2018-01-26T20:18:30.995Z,40.03
2018-01-26T20:21:02.078Z,43.40
2018-01-26T20:23:33.176Z,40.30
2018-01-26T20:26:04.321Z,39.37
2018-01-26T20:28:35.385Z,39.80
2018-01-26T20:31:06.469Z,40.80
2018-01-26T20:33:37.594Z,42.27
2018-01-26T20:36:08.703Z,42.47
2018-01-26T20:38:40.387Z,41.13
2018-01-26T20:41:11.438Z,42.83
2018-01-26T20:43:42.539Z,44.40
2018-01-26T20:46:16.286Z,43.70
2018-01-26T20:48:47.420Z,44.73
2018-01-26T20:51:18.523Z,41.77
2018-01-26T20:53:49.593Z,42.50
2018-01-26T20:56:20.713Z,43.40
2018-01-26T20:58:51.758Z,42.63
2018-01-26T21:01:22.851Z,43.43
2018-01-26T21:03:53.890Z,42.23
2018-01-26T21:06:24.964Z,42.30
2018-01-26T21:08:56.041Z,43.23
2018-01-26T21:11:27.166Z,38.60
2018-01-26T21:13:58.220Z,37.90
2018-01-26T21:16:29.321Z,39.10
2018-01-26T21:19:00.412Z,41.00
2018-01-26T21:21:31.528Z,39.50
2018-01-26T21:24:02.634Z,40.33
2018-01-26T21:26:40.722Z,38.87
2018-01-26T21:29:11.846Z,39.63
2018-01-26T21:31:42.929Z,39.03
2018-01-26T21:34:14.062Z,37.60
2018-01-26T21:36:45.127Z,37.30
2018-01-26T21:39:16.184Z,37.00
2018-01-26T21:41:48.192Z,36.03
2018-01-26T21:44:19.268Z,38.33
2018-01-26T21:46:50.394Z,42.23
2018-01-26T21:49:21.449Z,40.13
2018-01-26T21:51:52.560Z,36.63
2018-01-26T21:54:23.651Z,36.50
2018-01-26T21:56:54.835Z,32.53
2018-01-26T21:59:25.899Z,35.60
2018-01-26T22:01:57.046Z,33.27
2018-01-26T22:04:34.052Z,33.97
2018-01-26T22:07:11.273Z,33.73
2018-01-26T22:09:42.346Z,37.07
2018-01-26T22:12:13.412Z,33.67
2018-01-26T22:14:44.568Z,33.97
2018-01-26T22:17:15.661Z,33.90
2018-01-26T22:19:46.761Z,34.53
2018-01-26T22:22:17.977Z,36.17
2018-01-26T22:24:49.034Z,37.10
2018-01-26T22:27:20.142Z,38.83
2018-01-26T22:29:51.215Z,38.27
2018-01-26T22:32:22.285Z,37.63
2018-01-26T22:34:53.347Z,40.87
2018-01-26T22:37:24.431Z,41.57
2018-01-26T22:39:55.516Z,38.87
2018-01-26T22:42:26.579Z,35.70
2018-01-26T22:44:57.647Z,35.87
2018-01-26T22:47:28.729Z,36.30
2018-01-26T22:49:59.814Z,37.10
2018-01-26T22:52:30.919Z,36.13
2018-01-26T22:55:01.986Z,37.37
2018-01-26T22:57:33.125Z,35.87
2018-01-26T23:00:04.234Z,39.13
2018-01-26T23:02:35.299Z,37.33
2018-01-26T23:05:06.462Z,36.27
2018-01-26T23:07:37.602Z,34.23
2018-01-26T23:10:08.711Z,36.67
2018-01-26T23:12:39.743Z,35.10
2018-01-26T23:15:10.789Z,35.27
2018-01-26T23:17:41.864Z,34.57
2018-01-26T23:20:12.959Z,34.73
2018-01-26T23:22:44.093Z,32.73
2018-01-26T23:25:15.122Z,30.83
2018-01-26T23:27:46.177Z,32.13
2018-01-26T23:30:17.227Z,31.13
2018-01-26T23:32:48.341Z,29.80
2018-01-26T23:35:19.400Z,28.07
2018-01-26T23:37:50.480Z,28.17
2018-01-26T23:40:21.586Z,30.77
2018-01-26T23:42:52.704Z,28.83
2018-01-26T23:45:23.785Z,30.13
2018-01-26T23:47:54.872Z,30.33
2018-01-26T23:50:25.919Z,28.63
2018-01-26T23:52:57.008Z,27.97
2018-01-26T23:55:28.058Z,28.70
2018-01-26T23:58:00.294Z,27.13
